createdAt,value
2022-08-28T00:01:40.744Z,100122.65
2022-08-28T00:05:12.767Z,100124.92
2022-08-28T00:08:39.483Z,100123.14
2022-08-28T00:12:18.263Z,100124.05
2022-08-28T00:16:01.370Z,100123.69
2022-08-28T00:19:30.229Z,100129.17
2022-08-28T00:22:58.265Z,100135.35
2022-08-28T00:26:39.235Z,100131.75
2022-08-28T00:30:08.125Z,100133.70
2022-08-28T00:33:39.297Z,100134.46
2022-08-28T00:37:07.150Z,100131.92
2022-08-28T00:40:37.145Z,100133.45
2022-08-28T00:44:18.895Z,100133.17
2022-08-28T00:47:46.399Z,100137.55
2022-08-28T00:51:31.616Z,100141.52
2022-08-28T00:55:02.164Z,100131.57
2022-08-28T00:58:29.160Z,100132.10
2022-08-28T01:01:58.187Z,100133.27
2022-08-28T01:05:26.245Z,100130.11
2022-08-28T01:08:54.790Z,100130.60
2022-08-28T01:12:34.969Z,100132.54
2022-08-28T01:16:20.189Z,100131.63
2022-08-28T01:19:56.665Z,100130.73
2022-08-28T01:23:33.858Z,100131.59
2022-08-28T01:27:01.304Z,100130.54
2022-08-28T01:30:32.161Z,100129.36
2022-08-28T01:34:01.268Z,100125.84
2022-08-28T01:37:28.431Z,100127.69
2022-08-28T01:40:58.130Z,100124.17
2022-08-28T01:44:27.349Z,100126.41
2022-08-28T01:47:56.743Z,100125.05
2022-08-28T01:51:24.810Z,100127.43
2022-08-28T01:54:52.183Z,100126.92
2022-08-28T01:58:24.729Z,100127.39
2022-08-28T02:01:55.634Z,100127.90
2022-08-28T02:05:23.383Z,100128.84
2022-08-28T02:08:55.829Z,100125.70
2022-08-28T02:12:22.572Z,100118.38
2022-08-28T02:15:51.096Z,100120.42
2022-08-28T02:19:17.961Z,100116.05
2022-08-28T02:22:45.675Z,100111.06
2022-08-28T02:26:14.058Z,100109.49
2022-08-28T02:29:41.266Z,100108.10
2022-08-28T02:33:11.139Z,100104.11
2022-08-28T02:36:41.270Z,100103.08
2022-08-28T02:40:11.067Z,100105.58
2022-08-28T02:43:38.862Z,100100.17
2022-08-28T02:47:06.420Z,100097.79
2022-08-28T02:50:34.563Z,100090.88
2022-08-28T02:54:02.652Z,100093.52
2022-08-28T02:57:31.340Z,100091.56
2022-08-28T03:00:59.193Z,100088.59
2022-08-28T03:04:26.600Z,100085.90
2022-08-28T03:07:54.800Z,100084.14
2022-08-28T03:11:21.960Z,100081.97
2022-08-28T03:14:49.008Z,100080.97
2022-08-28T03:18:18.274Z,100076.50
2022-08-28T03:21:46.028Z,100074.42
2022-08-28T03:25:16.953Z,100072.77
2022-08-28T03:28:51.729Z,100072.29
2022-08-28T03:32:18.680Z,100070.67
2022-08-28T03:35:46.144Z,100067.34
2022-08-28T03:39:14.047Z,100062.77
2022-08-28T03:42:41.308Z,100059.55
2022-08-28T03:46:10.070Z,100063.41
2022-08-28T03:49:41.068Z,100062.84
2022-08-28T03:53:08.631Z,100064.44
2022-08-28T03:56:35.694Z,100063.82
2022-08-28T04:00:04.144Z,100063.41
2022-08-28T04:03:41.489Z,100063.33
2022-08-28T04:07:10.879Z,100065.71
2022-08-28T04:10:38.040Z,100068.45
2022-08-28T04:14:05.096Z,100067.02
2022-08-28T04:17:34.485Z,100069.89
2022-08-28T04:21:08.114Z,100071.48
2022-08-28T04:24:35.032Z,100076.72
2022-08-28T04:28:02.967Z,100077.19
2022-08-28T04:31:31.923Z,100080.64
2022-08-28T04:35:00.126Z,100075.81
2022-08-28T04:38:26.944Z,100077.59
2022-08-28T04:41:55.979Z,100084.08
2022-08-28T04:45:23.612Z,100080.96
2022-08-28T04:48:50.363Z,100080.30
2022-08-28T04:52:17.519Z,100082.35
2022-08-28T04:55:54.184Z,100082.50
2022-08-28T04:59:22.882Z,100088.48
2022-08-28T05:02:50.094Z,100088.75
2022-08-28T05:06:18.537Z,100078.40
2022-08-28T05:09:46.271Z,100086.52
2022-08-28T05:13:16.744Z,100086.23
2022-08-28T05:16:48.508Z,100091.03
2022-08-28T05:20:19.356Z,100093.14
2022-08-28T05:23:46.618Z,100095.80
2022-08-28T05:27:14.116Z,100100.02
2022-08-28T05:30:42.462Z,100107.63
2022-08-28T05:34:10.700Z,100113.13
2022-08-28T05:37:37.950Z,100111.40
2022-08-28T05:41:05.347Z,100115.74
2022-08-28T05:44:32.969Z,100119.26
2022-08-28T05:48:00.073Z,100115.30
2022-08-28T05:51:28.259Z,100115.25
2022-08-28T05:54:55.105Z,100121.34
2022-08-28T05:58:32.198Z,100114.46
2022-08-28T06:02:04.490Z,100119.54
2022-08-28T06:05:31.451Z,100121.45
2022-08-28T06:09:01.714Z,100124.72
2022-08-28T06:12:29.265Z,100121.10
2022-08-28T06:15:58.182Z,100121.30
2022-08-28T06:19:26.779Z,100123.56
2022-08-28T06:22:54.585Z,100121.67
2022-08-28T06:26:22.559Z,100122.64
2022-08-28T06:29:50.150Z,100122.41
2022-08-28T06:33:21.871Z,100118.70
2022-08-28T06:36:53.632Z,100121.78
2022-08-28T06:40:21.246Z,100124.41
2022-08-28T06:43:48.693Z,100120.70
2022-08-28T06:47:22.180Z,100122.32
2022-08-28T06:50:52.520Z,100127.44
2022-08-28T06:54:23.346Z,100132.20
2022-08-28T06:57:50.540Z,100134.48
2022-08-28T07:01:23.055Z,100139.52
2022-08-28T07:04:51.917Z,100145.89
2022-08-28T07:08:20.812Z,100141.77
2022-08-28T07:11:49.605Z,100136.55
2022-08-28T07:15:17.498Z,100133.27
2022-08-28T07:18:45.331Z,100131.81
2022-08-28T07:22:14.731Z,100132.04
2022-08-28T07:25:43.865Z,100126.75
2022-08-28T07:29:11.722Z,100127.66
2022-08-28T07:32:38.827Z,100116.31
2022-08-28T07:36:07.457Z,100127.63
2022-08-28T07:39:40.240Z,100125.73
2022-08-28T07:43:27.578Z,100126.66
2022-08-28T07:46:58.615Z,100128.94
2022-08-28T07:50:25.814Z,100132.09
2022-08-28T07:53:53.649Z,100129.25
2022-08-28T07:57:21.506Z,100129.86
2022-08-28T08:00:51.037Z,100132.96
2022-08-28T08:04:20.222Z,100133.36
2022-08-28T08:07:47.597Z,100131.66
2022-08-28T08:11:18.091Z,100129.39
2022-08-28T08:14:45.949Z,100125.92
2022-08-28T08:18:14.157Z,100129.70
2022-08-28T08:21:41.637Z,100127.63
2022-08-28T08:25:11.127Z,100129.66
2022-08-28T08:28:39.135Z,100132.70
2022-08-28T08:32:11.728Z,100134.63
2022-08-28T08:35:40.120Z,100138.08
2022-08-28T08:39:09.759Z,100141.30
2022-08-28T08:42:40.872Z,100143.48
2022-08-28T08:46:08.858Z,100141.34
2022-08-28T08:49:39.486Z,100142.42
2022-08-28T08:53:28.477Z,100138.30
2022-08-28T08:56:58.392Z,100137.27
2022-08-28T09:00:27.185Z,100134.48
2022-08-28T09:04:02.458Z,100136.16
2022-08-28T09:07:39.273Z,100138.63
2022-08-28T09:11:34.692Z,100137.83
2022-08-28T09:15:05.677Z,100136.86
2022-08-28T09:18:38.449Z,100141.03
2022-08-28T09:22:06.154Z,100140.33
2022-08-28T09:25:59.725Z,100138.20
2022-08-28T09:29:35.041Z,100138.33
2022-08-28T09:33:04.539Z,100142.77
2022-08-28T09:36:36.744Z,100137.90
2022-08-28T09:40:26.771Z,100139.03
2022-08-28T09:43:56.973Z,100139.80
2022-08-28T09:47:57.839Z,100137.73
2022-08-28T09:51:35.219Z,100145.38
2022-08-28T09:55:02.778Z,100143.88
2022-08-28T09:58:35.569Z,100146.62
2022-08-28T10:02:24.840Z,100142.00
2022-08-28T10:06:04.755Z,100146.66
2022-08-28T10:09:46.822Z,100147.67
2022-08-28T10:13:22.048Z,100147.65
2022-08-28T10:17:01.295Z,100143.63
2022-08-28T10:20:55.179Z,100148.31
2022-08-28T10:24:44.946Z,100150.04
2022-08-28T10:28:39.641Z,100144.15
2022-08-28T10:32:19.026Z,100146.80
2022-08-28T10:35:54.983Z,100146.06
2022-08-28T10:39:37.737Z,100146.04
2022-08-28T10:43:12.329Z,100147.23
2022-08-28T10:46:50.664Z,100143.05
2022-08-28T10:50:28.294Z,100145.48
2022-08-28T10:54:01.100Z,100144.18
2022-08-28T10:57:39.782Z,100143.36
2022-08-28T11:01:25.603Z,100140.94
2022-08-28T11:04:58.685Z,100133.52
2022-08-28T11:08:39.667Z,100129.50
2022-08-28T11:12:30.567Z,100136.76
2022-08-28T11:15:58.497Z,100136.52
2022-08-28T11:20:02.639Z,100138.79
2022-08-28T11:23:46.500Z,100138.61
2022-08-28T11:27:34.939Z,100137.30
2022-08-28T11:31:35.399Z,100134.98
2022-08-28T11:35:08.022Z,100135.50
2022-08-28T11:39:04.203Z,100135.10
2022-08-28T11:42:40.741Z,100138.39
2022-08-28T11:46:25.571Z,100137.67
2022-08-28T11:49:53.470Z,100140.00
2022-08-28T11:53:41.019Z,100146.84
2022-08-28T11:57:16.661Z,100145.20
2022-08-28T12:00:58.110Z,100149.70
2022-08-28T12:04:25.966Z,100139.65
2022-08-28T12:07:54.681Z,100137.89
2022-08-28T12:11:59.022Z,100138.67
2022-08-28T12:15:46.103Z,100140.18
2022-08-28T12:19:30.222Z,100136.21
2022-08-28T12:23:03.243Z,100133.27
2022-08-28T12:26:36.217Z,100139.02
2022-08-28T12:30:05.364Z,100141.05
2022-08-28T12:33:46.917Z,100135.51
2022-08-28T12:37:39.643Z,100133.83
2022-08-28T12:41:25.034Z,100129.55
2022-08-28T12:44:52.459Z,100125.29
2022-08-28T12:48:23.608Z,100126.99
2022-08-28T12:51:51.138Z,100122.61
2022-08-28T12:55:24.181Z,100123.38
2022-08-28T12:58:54.253Z,100121.77
2022-08-28T13:02:28.365Z,100121.36
2022-08-28T13:06:03.753Z,100121.09
2022-08-28T13:09:31.357Z,100120.71
2022-08-28T13:13:05.571Z,100122.11
2022-08-28T13:16:42.183Z,100120.02
2022-08-28T13:20:24.840Z,100113.64
2022-08-28T13:23:54.167Z,100117.27
2022-08-28T13:27:26.000Z,100116.13
2022-08-28T13:31:03.994Z,100114.04
2022-08-28T13:34:33.163Z,100110.74
2022-08-28T13:38:03.672Z,100109.95
2022-08-28T13:41:31.175Z,100113.13
2022-08-28T13:44:58.834Z,100110.42
2022-08-28T13:48:28.685Z,100112.65
2022-08-28T13:51:59.669Z,100110.88
2022-08-28T13:55:28.262Z,100108.98
2022-08-28T13:58:57.691Z,100110.33
2022-08-28T14:02:42.868Z,100110.51
2022-08-28T14:06:14.627Z,100112.05
2022-08-28T14:09:42.578Z,100112.61
2022-08-28T14:13:15.057Z,100107.14
2022-08-28T14:16:45.222Z,100113.27
2022-08-28T14:20:16.112Z,100110.60
2022-08-28T14:23:45.340Z,100115.75
2022-08-28T14:27:12.980Z,100113.48
2022-08-28T14:30:50.303Z,100118.52
2022-08-28T14:34:25.705Z,100113.55
2022-08-28T14:37:58.188Z,100112.58
2022-08-28T14:41:27.861Z,100108.27
2022-08-28T14:44:55.811Z,100105.60
2022-08-28T14:48:35.078Z,100107.23
2022-08-28T14:52:14.509Z,100108.42
2022-08-28T14:55:51.917Z,100108.71
2022-08-28T14:59:54.655Z,100101.41
2022-08-28T15:03:26.086Z,100106.70
2022-08-28T15:07:07.395Z,100115.46
2022-08-28T15:10:42.772Z,100119.94
2022-08-28T15:14:16.559Z,100123.23
2022-08-28T15:17:47.207Z,100119.02
2022-08-28T15:21:21.100Z,100128.56
2022-08-28T15:24:51.101Z,100135.30
2022-08-28T15:28:24.703Z,100141.95
2022-08-28T15:31:55.245Z,100142.80
2022-08-28T15:35:58.652Z,100149.63
2022-08-28T15:39:46.238Z,100156.22
2022-08-28T15:43:21.269Z,100164.12
2022-08-28T15:47:07.212Z,100176.14
2022-08-28T15:50:38.491Z,100187.94
2022-08-28T15:54:16.647Z,100198.67
2022-08-28T15:57:45.679Z,100201.05
2022-08-28T16:01:14.818Z,100207.50
2022-08-28T16:04:42.243Z,100216.42
2022-08-28T16:08:11.780Z,100224.17
2022-08-28T16:11:39.055Z,100226.70
2022-08-28T16:15:19.307Z,100220.95
2022-08-28T16:19:03.784Z,100206.35
2022-08-28T16:22:30.833Z,100198.73
2022-08-28T16:26:16.298Z,100195.67
2022-08-28T16:29:57.572Z,100199.68
2022-08-28T16:33:26.279Z,100209.83
2022-08-28T16:36:53.834Z,100221.80
2022-08-28T16:40:21.985Z,100218.39
2022-08-28T16:43:50.606Z,100210.81
2022-08-28T16:47:21.784Z,100194.61
2022-08-28T16:50:51.946Z,100198.93
2022-08-28T16:54:23.991Z,100197.98
2022-08-28T16:57:55.935Z,100201.33
2022-08-28T17:01:26.765Z,100209.02
2022-08-28T17:05:00.806Z,100208.06
2022-08-28T17:08:37.024Z,100209.45
2022-08-28T17:12:14.272Z,100218.92
2022-08-28T17:15:41.835Z,100227.08
2022-08-28T17:19:17.622Z,100225.55
2022-08-28T17:22:47.088Z,100225.52
2022-08-28T17:26:21.402Z,100233.41
2022-08-28T17:29:53.548Z,100235.89
2022-08-28T17:33:25.341Z,100243.96
2022-08-28T17:36:53.852Z,100245.39
2022-08-28T17:40:22.252Z,100246.02
2022-08-28T17:43:55.122Z,100248.45
2022-08-28T17:47:27.569Z,100246.16
2022-08-28T17:51:19.797Z,100256.32
2022-08-28T17:55:01.041Z,100279.52
2022-08-28T17:58:33.463Z,100289.70
2022-08-28T18:02:04.989Z,100294.27
2022-08-28T18:05:33.509Z,100299.34
2022-08-28T18:09:04.049Z,100307.38
2022-08-28T18:12:31.863Z,100307.84
2022-08-28T18:15:59.545Z,100302.04
2022-08-28T18:19:29.957Z,100294.29
2022-08-28T18:22:57.880Z,100283.55
2022-08-28T18:26:29.315Z,100280.70
2022-08-28T18:30:02.966Z,100282.09
2022-08-28T18:33:33.979Z,100289.39
2022-08-28T18:37:03.425Z,100304.60
2022-08-28T18:40:32.318Z,100314.34
2022-08-28T18:44:04.776Z,100323.80
2022-08-28T18:47:34.398Z,100326.50
2022-08-28T18:51:04.536Z,100333.78
2022-08-28T18:54:33.168Z,100337.52
2022-08-28T18:58:02.765Z,100337.61
2022-08-28T19:01:35.066Z,100348.64
2022-08-28T19:05:03.694Z,100357.48
2022-08-28T19:08:38.192Z,100368.87
2022-08-28T19:12:08.418Z,100369.13
2022-08-28T19:15:38.648Z,100371.91
2022-08-28T19:19:09.007Z,100369.20
2022-08-28T19:22:39.225Z,100381.41
2022-08-28T19:26:07.925Z,100381.90
2022-08-28T19:29:39.499Z,100385.58
2022-08-28T19:33:12.905Z,100390.77
2022-08-28T19:36:45.592Z,100397.79
2022-08-28T19:40:16.269Z,100402.30
2022-08-28T19:43:44.848Z,100413.16
2022-08-28T19:47:16.323Z,100417.91
2022-08-28T19:50:44.629Z,100426.30
2022-08-28T19:54:14.785Z,100427.05
2022-08-28T19:57:45.455Z,100426.82
2022-08-28T20:01:15.567Z,100431.20
2022-08-28T20:04:43.431Z,100429.29
2022-08-28T20:08:14.310Z,100434.30
2022-08-28T20:11:49.501Z,100437.41
2022-08-28T20:15:19.844Z,100439.77
2022-08-28T20:18:53.798Z,100443.45
2022-08-28T20:22:22.753Z,100441.34
2022-08-28T20:26:17.734Z,100442.88
2022-08-28T20:29:57.424Z,100442.48
2022-08-28T20:33:26.109Z,100443.97
2022-08-28T20:36:56.192Z,100437.48
2022-08-28T20:40:36.477Z,100439.52
2022-08-28T20:44:07.519Z,100445.70
2022-08-28T20:47:38.780Z,100449.77
2022-08-28T20:51:09.348Z,100451.99
2022-08-28T20:54:39.096Z,100451.21
2022-08-28T20:58:15.797Z,100451.98
2022-08-28T21:01:45.606Z,100447.80
2022-08-28T21:05:13.740Z,100443.20
2022-08-28T21:08:45.435Z,100441.61
2022-08-28T21:12:14.746Z,100441.97
2022-08-28T21:15:42.934Z,100453.54
2022-08-28T21:19:15.838Z,100458.70
2022-08-28T21:22:47.323Z,100467.09
2022-08-28T21:26:15.413Z,100472.11
2022-08-28T21:29:42.556Z,100479.63
2022-08-28T21:33:12.488Z,100479.52
2022-08-28T21:36:49.991Z,100482.21
2022-08-28T21:40:19.907Z,100482.30
2022-08-28T21:43:48.147Z,100488.27
2022-08-28T21:47:19.395Z,100495.61
2022-08-28T21:50:47.183Z,100503.98
2022-08-28T21:54:17.194Z,100504.59
2022-08-28T21:57:44.860Z,100511.90
2022-08-28T22:01:15.583Z,100515.96
2022-08-28T22:04:48.606Z,100522.76
2022-08-28T22:08:24.215Z,100521.13
2022-08-28T22:11:52.212Z,100526.28
2022-08-28T22:15:20.084Z,100520.05
2022-08-28T22:18:47.515Z,100520.48
2022-08-28T22:22:33.867Z,100519.44
2022-08-28T22:26:06.508Z,100520.28
2022-08-28T22:29:37.356Z,100518.94
2022-08-28T22:33:06.999Z,100515.86
2022-08-28T22:36:44.301Z,100514.28
2022-08-28T22:40:17.351Z,100509.77
2022-08-28T22:43:47.004Z,100501.74
2022-08-28T22:47:20.952Z,100499.69
2022-08-28T22:50:49.874Z,100505.02
2022-08-28T22:54:18.820Z,100499.03
2022-08-28T22:57:48.753Z,100503.16
2022-08-28T23:01:19.728Z,100498.37
2022-08-28T23:04:51.179Z,100493.11
2022-08-28T23:08:19.832Z,100494.67
2022-08-28T23:11:47.539Z,100496.98
2022-08-28T23:15:17.959Z,100495.38
2022-08-28T23:19:07.369Z,100490.84
2022-08-28T23:22:35.121Z,100488.67
2022-08-28T23:26:03.487Z,100487.27
2022-08-28T23:29:31.331Z,100486.33
2022-08-28T23:32:58.388Z,100483.80
2022-08-28T23:36:26.052Z,100482.02
2022-08-28T23:39:53.048Z,100479.44
2022-08-28T23:43:22.315Z,100482.57
2022-08-28T23:46:50.083Z,100478.15
2022-08-28T23:50:20.728Z,100480.20
2022-08-28T23:53:48.548Z,100481.91
2022-08-28T23:57:18.846Z,100481.65
